createdAt,value
2017-12-27T00:00:53.845Z,17.22
2017-12-27T00:01:53.792Z,17.20
2017-12-27T00:02:53.734Z,17.20
2017-12-27T00:03:53.677Z,17.28
2017-12-27T00:04:53.622Z,17.17
2017-12-27T00:05:53.567Z,17.26
2017-12-27T00:06:53.511Z,17.20
2017-12-27T00:07:53.458Z,17.17
2017-12-27T00:08:53.401Z,17.15
2017-12-27T00:09:53.342Z,17.22
2017-12-27T00:10:53.285Z,17.22
2017-12-27T00:11:53.229Z,17.18
2017-12-27T00:12:53.173Z,17.22
2017-12-27T00:13:53.117Z,17.20
2017-12-27T00:14:53.062Z,17.18
2017-12-27T00:15:53.005Z,17.25
2017-12-27T00:16:52.948Z,17.17
2017-12-27T00:17:52.894Z,17.17
2017-12-27T00:18:52.836Z,17.25
2017-12-27T00:19:52.780Z,17.17
2017-12-27T00:20:52.724Z,17.23
2017-12-27T00:21:52.668Z,17.15
2017-12-27T00:22:52.613Z,17.22
2017-12-27T00:23:52.556Z,17.18
2017-12-27T00:24:52.500Z,17.25
2017-12-27T00:25:52.443Z,17.18
2017-12-27T00:26:52.388Z,17.22
2017-12-27T00:27:52.331Z,17.25
2017-12-27T00:28:52.275Z,17.25
2017-12-27T00:29:52.221Z,17.10
2017-12-27T00:30:52.164Z,17.20
2017-12-27T00:31:52.107Z,17.20
2017-12-27T00:32:52.051Z,17.18
2017-12-27T00:33:51.995Z,17.22
2017-12-27T00:34:51.939Z,17.18
2017-12-27T00:35:51.882Z,17.15
2017-12-27T00:36:51.828Z,17.22
2017-12-27T00:37:51.771Z,17.23
2017-12-27T00:38:51.714Z,17.23
2017-12-27T00:39:51.659Z,17.23
2017-12-27T00:40:51.602Z,17.23
2017-12-27T00:41:51.547Z,17.23
2017-12-27T00:42:51.492Z,17.15
2017-12-27T00:43:51.434Z,17.17
2017-12-27T00:44:51.380Z,17.23
2017-12-27T00:45:51.322Z,17.13
2017-12-27T00:46:51.266Z,17.23
2017-12-27T00:47:51.209Z,17.15
2017-12-27T00:48:51.153Z,17.10
2017-12-27T00:49:51.098Z,17.13
2017-12-27T00:50:51.042Z,17.10
2017-12-27T00:51:50.986Z,17.14
2017-12-27T00:52:50.930Z,17.13
2017-12-27T00:53:50.874Z,17.15
2017-12-27T00:54:50.817Z,17.11
2017-12-27T00:55:50.760Z,17.11
2017-12-27T00:56:50.705Z,17.15
2017-12-27T00:57:50.648Z,17.15
2017-12-27T00:58:50.593Z,17.17
2017-12-27T00:59:50.536Z,17.14
2017-12-27T01:00:50.480Z,17.18
2017-12-27T01:01:50.425Z,17.14
2017-12-27T01:02:50.368Z,17.15
2017-12-27T01:03:50.312Z,17.18
2017-12-27T01:04:50.257Z,17.08
2017-12-27T01:05:50.201Z,17.10
2017-12-27T01:06:50.143Z,17.17
2017-12-27T01:07:50.087Z,17.11
2017-12-27T01:08:50.032Z,17.14
2017-12-27T01:09:49.975Z,17.20
2017-12-27T01:10:49.920Z,17.15
2017-12-27T01:11:49.862Z,17.14
2017-12-27T01:12:49.807Z,17.10
2017-12-27T01:13:49.751Z,17.13
2017-12-27T01:14:49.696Z,17.17
2017-12-27T01:15:49.638Z,17.10
2017-12-27T01:16:49.582Z,17.13
2017-12-27T01:17:49.530Z,17.17
2017-12-27T01:18:49.471Z,17.14
2017-12-27T01:19:49.413Z,17.11
2017-12-27T01:20:49.358Z,17.15
2017-12-27T01:21:49.302Z,17.11
2017-12-27T01:22:49.245Z,17.10
2017-12-27T01:23:49.189Z,17.15
2017-12-27T01:24:49.133Z,17.08
2017-12-27T01:25:49.078Z,17.14
2017-12-27T01:26:49.023Z,17.15
2017-12-27T01:27:48.966Z,17.13
2017-12-27T01:28:48.910Z,17.15
2017-12-27T01:29:48.853Z,17.11
2017-12-27T01:30:48.796Z,17.11
2017-12-27T01:31:48.740Z,17.10
2017-12-27T01:32:48.684Z,17.14
2017-12-27T01:33:48.628Z,17.08
2017-12-27T01:34:48.572Z,17.13
2017-12-27T01:35:48.515Z,17.15
2017-12-27T01:36:48.459Z,17.11
2017-12-27T01:37:48.404Z,17.13
2017-12-27T01:38:48.349Z,17.11
2017-12-27T01:39:48.292Z,17.13
2017-12-27T01:40:48.235Z,17.17
2017-12-27T01:41:48.179Z,17.11
2017-12-27T01:42:48.123Z,17.13
2017-12-27T01:43:48.066Z,17.07
2017-12-27T01:44:48.012Z,17.14
2017-12-27T01:45:47.954Z,17.17
2017-12-27T01:46:47.899Z,17.17
2017-12-27T01:47:47.842Z,17.13
2017-12-27T01:48:47.786Z,17.14
2017-12-27T01:49:47.730Z,17.13
2017-12-27T01:50:47.676Z,17.11
2017-12-27T01:51:47.618Z,17.13
2017-12-27T01:52:47.561Z,17.14
2017-12-27T01:53:47.506Z,17.14
2017-12-27T01:54:47.454Z,17.13
2017-12-27T01:55:47.393Z,17.18
2017-12-27T01:56:47.337Z,17.10
2017-12-27T01:57:47.280Z,17.10
2017-12-27T01:58:47.225Z,17.13
2017-12-27T01:59:47.168Z,17.15
2017-12-27T02:00:47.113Z,17.07
2017-12-27T02:01:47.058Z,17.20
2017-12-27T02:02:47.001Z,17.17
2017-12-27T02:03:46.945Z,17.11
2017-12-27T02:04:46.888Z,17.11
2017-12-27T02:05:46.832Z,17.15
2017-12-27T02:06:46.777Z,17.15
2017-12-27T02:07:46.719Z,17.11
2017-12-27T02:08:46.664Z,17.14
2017-12-27T02:09:46.608Z,17.08
2017-12-27T02:10:46.551Z,17.08
2017-12-27T02:11:46.494Z,17.07
2017-12-27T02:12:46.440Z,17.14
2017-12-27T02:13:46.382Z,17.13
2017-12-27T02:14:46.327Z,17.13
2017-12-27T02:15:46.271Z,17.11
2017-12-27T02:16:46.214Z,17.11
2017-12-27T02:17:46.158Z,17.15
2017-12-27T02:18:46.102Z,17.13
2017-12-27T02:19:46.045Z,17.11
2017-12-27T02:20:45.990Z,17.14
2017-12-27T02:21:45.934Z,17.17
2017-12-27T02:22:45.878Z,17.11
2017-12-27T02:23:45.821Z,17.14
2017-12-27T02:24:45.764Z,17.10
2017-12-27T02:25:45.709Z,17.14
2017-12-27T02:26:45.654Z,17.08
2017-12-27T02:27:45.596Z,17.15
2017-12-27T02:28:45.541Z,17.10
2017-12-27T02:29:45.484Z,17.13
2017-12-27T02:30:45.430Z,17.11
2017-12-27T02:31:45.371Z,17.11
2017-12-27T02:32:45.315Z,17.14
2017-12-27T02:33:45.263Z,17.11
2017-12-27T02:34:45.203Z,17.10
2017-12-27T02:35:45.147Z,17.15
2017-12-27T02:36:45.091Z,17.11
2017-12-27T02:37:45.037Z,17.11
2017-12-27T02:38:44.979Z,17.07
2017-12-27T02:39:44.923Z,17.15
2017-12-27T02:40:44.866Z,17.17
2017-12-27T02:41:44.810Z,17.13
2017-12-27T02:42:44.754Z,17.11
2017-12-27T02:43:44.900Z,17.13
2017-12-27T02:44:44.642Z,17.11
2017-12-27T02:45:44.585Z,17.11
2017-12-27T02:46:44.529Z,17.14
2017-12-27T02:47:44.474Z,17.14
2017-12-27T02:48:44.418Z,17.14
2017-12-27T02:49:44.361Z,17.11
2017-12-27T02:50:44.305Z,17.17
2017-12-27T02:51:44.250Z,17.13
2017-12-27T02:52:44.194Z,17.10
2017-12-27T02:53:44.136Z,17.03
2017-12-27T02:54:44.082Z,17.08
2017-12-27T02:55:44.024Z,17.13
2017-12-27T02:56:43.968Z,17.14
2017-12-27T02:57:43.911Z,17.11
2017-12-27T02:58:43.856Z,17.08
2017-12-27T02:59:43.799Z,17.17
2017-12-27T03:00:43.743Z,17.10
2017-12-27T03:01:43.687Z,17.11
2017-12-27T03:02:43.631Z,17.13
2017-12-27T03:03:43.574Z,17.10
2017-12-27T03:04:43.519Z,17.15
2017-12-27T03:05:43.462Z,17.14
2017-12-27T03:06:43.406Z,17.11
2017-12-27T03:07:43.350Z,17.08
2017-12-27T03:08:43.294Z,17.08
2017-12-27T03:09:43.239Z,17.10
2017-12-27T03:10:43.182Z,17.14
2017-12-27T03:11:43.124Z,17.13
2017-12-27T03:12:43.068Z,17.08
2017-12-27T03:13:43.014Z,17.14
2017-12-27T03:14:42.958Z,17.08
2017-12-27T03:15:42.900Z,17.17
2017-12-27T03:16:42.845Z,17.14
2017-12-27T03:17:42.788Z,17.14
2017-12-27T03:18:42.732Z,17.11
2017-12-27T03:19:42.676Z,17.11
2017-12-27T03:20:42.621Z,17.13
2017-12-27T03:21:42.563Z,17.11
2017-12-27T03:22:42.510Z,17.10
2017-12-27T03:23:42.452Z,17.13
2017-12-27T03:24:42.396Z,17.15
2017-12-27T03:25:42.339Z,17.14
2017-12-27T03:26:42.283Z,17.15
2017-12-27T03:27:42.225Z,17.13
2017-12-27T03:28:42.169Z,17.13
2017-12-27T03:29:42.116Z,17.15
2017-12-27T03:30:42.059Z,17.10
2017-12-27T03:31:42.002Z,17.15
2017-12-27T03:32:41.946Z,17.08
2017-12-27T03:33:41.889Z,17.10
2017-12-27T03:34:41.833Z,17.14
2017-12-27T03:35:41.777Z,17.11
2017-12-27T03:36:41.721Z,17.11
2017-12-27T03:37:41.666Z,17.08
2017-12-27T03:38:41.609Z,17.13
2017-12-27T03:39:41.550Z,17.15
2017-12-27T03:40:41.499Z,17.08
2017-12-27T03:41:41.440Z,16.99
2017-12-27T03:42:41.384Z,17.17
2017-12-27T03:43:41.331Z,17.11
2017-12-27T03:44:41.271Z,17.13
2017-12-27T03:45:41.216Z,17.14
2017-12-27T03:46:41.159Z,17.17
2017-12-27T03:47:41.103Z,17.10
2017-12-27T03:48:41.053Z,17.13
2017-12-27T03:49:40.993Z,17.13
2017-12-27T03:50:40.935Z,17.04
2017-12-27T03:51:40.878Z,17.13
2017-12-27T03:52:40.826Z,17.03
2017-12-27T03:53:40.766Z,17.11
2017-12-27T03:54:40.709Z,17.15
2017-12-27T03:55:40.653Z,16.99
2017-12-27T03:56:40.597Z,17.08
2017-12-27T03:57:40.541Z,16.96
2017-12-27T03:58:40.485Z,17.18
2017-12-27T03:59:40.428Z,16.99
2017-12-27T04:00:40.373Z,16.96
2017-12-27T04:01:40.316Z,17.14
2017-12-27T04:02:40.261Z,17.13
2017-12-27T04:03:40.204Z,17.13
2017-12-27T04:04:40.148Z,17.11
2017-12-27T04:05:40.092Z,17.15
2017-12-27T04:06:40.037Z,17.14
2017-12-27T04:07:39.979Z,17.11
2017-12-27T04:08:39.922Z,17.10
2017-12-27T04:09:39.867Z,17.08
2017-12-27T04:10:39.811Z,17.10
2017-12-27T04:11:39.753Z,17.17
2017-12-27T04:12:39.699Z,17.07
2017-12-27T04:13:39.643Z,17.06
2017-12-27T04:14:39.587Z,17.10
2017-12-27T04:15:39.529Z,17.14
2017-12-27T04:16:39.473Z,17.10
2017-12-27T04:17:39.417Z,17.06
2017-12-27T04:18:39.361Z,17.07
2017-12-27T04:19:39.303Z,17.10
2017-12-27T04:20:39.250Z,17.00
2017-12-27T04:21:39.192Z,17.14
2017-12-27T04:22:39.136Z,17.11
2017-12-27T04:23:39.080Z,17.13
2017-12-27T04:24:39.024Z,17.13
2017-12-27T04:25:38.968Z,17.14
2017-12-27T04:26:38.913Z,17.10
2017-12-27T04:27:38.854Z,17.08
2017-12-27T04:28:38.798Z,16.96
2017-12-27T04:29:38.743Z,17.13
2017-12-27T04:30:38.686Z,17.11
2017-12-27T04:31:38.629Z,17.11
2017-12-27T04:32:38.574Z,17.18
2017-12-27T04:33:38.519Z,17.10
2017-12-27T04:34:38.462Z,17.08
2017-12-27T04:35:38.405Z,17.10
2017-12-27T04:36:38.350Z,16.96
2017-12-27T04:37:38.294Z,17.11
2017-12-27T04:38:38.237Z,17.17
2017-12-27T04:39:38.180Z,17.08
2017-12-27T04:40:38.124Z,17.10
2017-12-27T04:41:38.068Z,16.99
2017-12-27T04:42:38.012Z,17.14
2017-12-27T04:43:37.955Z,17.06
2017-12-27T04:44:37.910Z,17.00
2017-12-27T04:45:37.843Z,17.10
2017-12-27T04:46:37.788Z,17.13
2017-12-27T04:47:37.731Z,17.03
2017-12-27T04:48:37.674Z,17.00
2017-12-27T04:49:37.622Z,16.99
2017-12-27T04:50:37.563Z,16.96
2017-12-27T04:51:37.507Z,17.11
2017-12-27T04:52:37.450Z,17.03
2017-12-27T04:53:37.397Z,17.07
2017-12-27T04:54:37.337Z,16.96
2017-12-27T04:55:37.281Z,17.14
2017-12-27T04:56:37.225Z,16.98
2017-12-27T04:57:37.168Z,17.11
2017-12-27T04:58:37.116Z,17.13
2017-12-27T04:59:37.055Z,16.99
2017-12-27T05:00:37.002Z,17.08
2017-12-27T05:01:36.944Z,16.98
2017-12-27T05:02:36.889Z,17.07
2017-12-27T05:03:36.834Z,17.11
2017-12-27T05:04:36.775Z,17.13
2017-12-27T05:05:36.723Z,17.00
2017-12-27T05:06:36.664Z,16.98
2017-12-27T05:07:36.606Z,17.11
2017-12-27T05:08:36.551Z,17.11
2017-12-27T05:09:36.494Z,17.15
2017-12-27T05:10:36.438Z,17.17
2017-12-27T05:11:36.381Z,17.20
2017-12-27T05:12:36.325Z,17.29
2017-12-27T05:13:36.269Z,17.30
2017-12-27T05:14:36.214Z,17.46
2017-12-27T05:15:36.161Z,17.47
2017-12-27T05:16:36.099Z,17.41
2017-12-27T05:17:36.044Z,17.55
2017-12-27T05:18:35.987Z,17.57
2017-12-27T05:19:35.932Z,17.69
2017-12-27T05:20:35.880Z,17.76
2017-12-27T05:21:35.820Z,17.81
2017-12-27T05:22:35.765Z,17.87
2017-12-27T05:23:35.707Z,17.81
2017-12-27T05:24:35.651Z,17.84
2017-12-27T05:25:35.601Z,17.95
2017-12-27T05:26:35.542Z,18.00
2017-12-27T05:27:35.488Z,17.97
2017-12-27T05:28:35.427Z,17.92
2017-12-27T05:29:35.374Z,17.87
2017-12-27T05:30:35.315Z,17.92
2017-12-27T05:31:35.258Z,17.91
2017-12-27T05:32:35.202Z,17.79
2017-12-27T05:33:35.146Z,17.84
2017-12-27T05:34:35.090Z,17.81
2017-12-27T05:35:35.034Z,17.88
2017-12-27T05:36:34.978Z,17.84
2017-12-27T05:37:34.922Z,17.78
2017-12-27T05:38:34.867Z,17.79
2017-12-27T05:39:34.809Z,17.71
2017-12-27T05:40:34.786Z,17.78
2017-12-27T05:41:34.698Z,17.71
2017-12-27T05:42:34.643Z,17.71
2017-12-27T05:43:34.585Z,17.76
2017-12-27T05:44:34.531Z,17.73
2017-12-27T05:45:34.475Z,17.79
2017-12-27T05:46:34.445Z,17.76
2017-12-27T05:47:34.363Z,17.74
2017-12-27T05:48:34.306Z,17.73
2017-12-27T05:49:34.251Z,17.78
2017-12-27T05:50:34.195Z,17.76
2017-12-27T05:51:34.138Z,17.74
2017-12-27T05:52:34.083Z,17.74
2017-12-27T05:53:34.026Z,17.74
2017-12-27T05:54:33.970Z,17.70
2017-12-27T05:55:33.914Z,17.67
2017-12-27T05:56:33.860Z,17.71
2017-12-27T05:57:33.804Z,17.67
2017-12-27T05:58:33.751Z,17.71
2017-12-27T05:59:33.691Z,17.63
2017-12-27T06:00:33.673Z,17.67
2017-12-27T06:01:33.580Z,17.63
2017-12-27T06:02:33.523Z,17.63
2017-12-27T06:03:33.468Z,17.59
2017-12-27T06:04:33.412Z,17.59
2017-12-27T06:05:33.356Z,17.54
2017-12-27T06:06:33.301Z,17.53
2017-12-27T06:07:33.245Z,17.55
2017-12-27T06:08:33.188Z,17.53
2017-12-27T06:09:33.133Z,17.53
2017-12-27T06:10:33.077Z,17.59
2017-12-27T06:11:33.020Z,17.50
2017-12-27T06:12:32.965Z,17.53
2017-12-27T06:13:32.911Z,17.48
2017-12-27T06:14:32.853Z,17.53
2017-12-27T06:15:32.796Z,17.47
2017-12-27T06:16:32.740Z,17.51
2017-12-27T06:17:32.692Z,17.57
2017-12-27T06:18:32.629Z,17.44
2017-12-27T06:19:32.572Z,17.51
2017-12-27T06:20:32.519Z,17.55
2017-12-27T06:21:32.462Z,17.54
2017-12-27T06:22:32.406Z,17.44
2017-12-27T06:23:32.349Z,17.43
2017-12-27T06:24:32.294Z,17.47
2017-12-27T06:25:32.238Z,17.48
2017-12-27T06:26:32.182Z,17.47
2017-12-27T06:27:32.127Z,17.41
2017-12-27T06:28:32.072Z,17.41
2017-12-27T06:29:32.015Z,17.40
2017-12-27T06:30:31.958Z,17.43
2017-12-27T06:31:31.902Z,17.41
2017-12-27T06:32:31.847Z,17.40
2017-12-27T06:33:31.790Z,17.41
2017-12-27T06:34:31.735Z,17.47
2017-12-27T06:35:31.680Z,17.44
2017-12-27T06:36:31.622Z,17.40
2017-12-27T06:37:31.567Z,17.38
2017-12-27T06:38:31.511Z,17.30
2017-12-27T06:39:31.455Z,17.41
2017-12-27T06:40:31.402Z,17.38
2017-12-27T06:41:31.343Z,17.28
2017-12-27T06:42:31.289Z,17.32
2017-12-27T06:43:31.231Z,17.33
2017-12-27T06:44:31.176Z,17.36
2017-12-27T06:45:31.119Z,17.30
2017-12-27T06:46:31.065Z,17.32
2017-12-27T06:47:31.007Z,17.32
2017-12-27T06:48:30.952Z,17.29
2017-12-27T06:49:30.900Z,17.28
2017-12-27T06:50:30.841Z,17.29
2017-12-27T06:51:30.788Z,17.32
2017-12-27T06:52:30.740Z,17.28
2017-12-27T06:53:30.672Z,17.30
2017-12-27T06:54:30.617Z,17.32
2017-12-27T06:55:30.560Z,17.43
2017-12-27T06:56:30.503Z,17.40
2017-12-27T06:57:30.450Z,17.32
2017-12-27T06:58:30.393Z,17.26
2017-12-27T06:59:30.336Z,17.32
2017-12-27T07:00:30.282Z,17.32
2017-12-27T07:01:30.225Z,17.29
2017-12-27T07:02:30.234Z,17.30
2017-12-27T07:03:30.113Z,17.30
2017-12-27T07:04:30.057Z,17.23
2017-12-27T07:05:30.001Z,17.32
2017-12-27T07:06:29.945Z,17.28
2017-12-27T07:07:29.889Z,17.25
2017-12-27T07:08:29.834Z,17.28
2017-12-27T07:09:29.778Z,17.26
2017-12-27T07:10:29.721Z,17.30
2017-12-27T07:11:29.665Z,17.28
2017-12-27T07:12:29.609Z,17.23
2017-12-27T07:13:29.553Z,17.23
2017-12-27T07:14:29.497Z,17.26
2017-12-27T07:15:29.440Z,17.26
2017-12-27T07:16:29.387Z,17.25
2017-12-27T07:17:29.329Z,17.32
2017-12-27T07:18:29.274Z,17.28
2017-12-27T07:19:29.217Z,17.28
2017-12-27T07:20:29.166Z,17.25
2017-12-27T07:21:29.147Z,17.30
2017-12-27T07:22:29.051Z,17.26
2017-12-27T07:23:29.039Z,17.26
2017-12-27T07:24:28.938Z,17.28
2017-12-27T07:25:28.881Z,17.25
2017-12-27T07:26:28.825Z,17.25
2017-12-27T07:27:28.770Z,17.25
2017-12-27T07:28:28.785Z,17.20
2017-12-27T07:29:28.713Z,17.26
2017-12-27T07:30:28.602Z,17.26
2017-12-27T07:31:28.545Z,17.23
2017-12-27T07:32:28.489Z,17.23
2017-12-27T07:33:28.434Z,17.25
2017-12-27T07:34:28.377Z,17.29
2017-12-27T07:35:28.320Z,17.18
2017-12-27T07:36:28.265Z,17.26
2017-12-27T07:37:28.210Z,17.25
2017-12-27T07:38:28.157Z,17.29
2017-12-27T07:39:28.097Z,17.26
2017-12-27T07:40:28.042Z,17.25
2017-12-27T07:41:27.985Z,17.26
2017-12-27T07:42:27.930Z,17.29
2017-12-27T07:43:27.873Z,17.28
2017-12-27T07:44:27.817Z,17.30
2017-12-27T07:45:27.761Z,17.26
2017-12-27T07:46:27.704Z,17.23
2017-12-27T07:47:27.648Z,17.30
2017-12-27T07:48:27.598Z,17.28
2017-12-27T07:49:27.537Z,17.30
2017-12-27T07:50:27.481Z,17.30
2017-12-27T07:51:27.424Z,17.29
2017-12-27T07:52:27.369Z,17.26
2017-12-27T07:53:27.313Z,17.26
2017-12-27T07:54:27.257Z,17.26
2017-12-27T07:55:27.206Z,17.29
2017-12-27T07:56:27.149Z,17.33
2017-12-27T07:57:27.088Z,17.32
2017-12-27T07:58:27.034Z,17.30
2017-12-27T07:59:26.976Z,17.38
2017-12-27T08:00:26.920Z,17.29
2017-12-27T08:01:26.865Z,17.35
2017-12-27T08:02:26.815Z,17.33
2017-12-27T08:03:26.752Z,17.29
2017-12-27T08:04:26.698Z,17.36
2017-12-27T08:05:26.641Z,17.40
2017-12-27T08:06:26.585Z,17.32
2017-12-27T08:07:26.528Z,17.33
2017-12-27T08:08:26.472Z,17.36
2017-12-27T08:09:26.420Z,17.28
2017-12-27T08:10:26.361Z,17.30
2017-12-27T08:11:26.305Z,17.33
2017-12-27T08:12:26.248Z,17.33
2017-12-27T08:13:26.193Z,17.43
2017-12-27T08:14:26.137Z,17.29
2017-12-27T08:15:26.080Z,17.26
2017-12-27T08:16:26.025Z,17.38
2017-12-27T08:17:25.968Z,17.26
2017-12-27T08:18:25.912Z,17.32
2017-12-27T08:19:25.856Z,17.26
2017-12-27T08:20:25.800Z,17.32
2017-12-27T08:21:25.745Z,17.26
2017-12-27T08:22:25.689Z,17.32
2017-12-27T08:23:25.737Z,17.25
2017-12-27T08:24:25.577Z,17.35
2017-12-27T08:25:25.520Z,17.32
2017-12-27T08:26:25.466Z,17.22
2017-12-27T08:27:25.408Z,17.20
2017-12-27T08:28:25.352Z,17.25
2017-12-27T08:29:25.298Z,17.17
2017-12-27T08:30:25.241Z,17.23
2017-12-27T08:31:25.184Z,17.28
2017-12-27T08:32:25.129Z,17.17
2017-12-27T08:33:25.072Z,17.18
2017-12-27T08:34:25.017Z,17.29
2017-12-27T08:35:24.960Z,17.22
2017-12-27T08:36:24.904Z,17.33
2017-12-27T08:37:24.852Z,17.26
2017-12-27T08:38:24.792Z,17.23
2017-12-27T08:39:24.735Z,17.20
2017-12-27T08:40:24.681Z,17.20
2017-12-27T08:41:24.624Z,17.22
2017-12-27T08:42:24.568Z,17.17
2017-12-27T08:43:24.511Z,17.17
2017-12-27T08:44:24.457Z,17.25
2017-12-27T08:45:24.401Z,17.14
2017-12-27T08:46:24.346Z,17.25
2017-12-27T08:47:24.287Z,17.23
2017-12-27T08:48:24.231Z,17.25
2017-12-27T08:49:24.176Z,17.20
2017-12-27T08:50:24.120Z,17.22
2017-12-27T08:51:24.063Z,17.18
2017-12-27T08:52:24.007Z,17.28
2017-12-27T08:53:23.952Z,17.22
2017-12-27T08:54:23.895Z,17.26
2017-12-27T08:55:23.840Z,17.30
2017-12-27T08:56:23.783Z,17.23
2017-12-27T08:57:23.727Z,17.25
2017-12-27T08:58:23.671Z,17.28
2017-12-27T08:59:23.615Z,17.23
2017-12-27T09:00:23.640Z,17.30
2017-12-27T09:01:23.503Z,17.30
2017-12-27T09:02:23.447Z,17.28
2017-12-27T09:03:23.390Z,17.28
2017-12-27T09:04:23.334Z,17.25
2017-12-27T09:05:23.278Z,17.28
2017-12-27T09:06:23.226Z,17.29
2017-12-27T09:07:23.167Z,17.26
2017-12-27T09:08:23.110Z,17.33
2017-12-27T09:09:23.054Z,17.25
2017-12-27T09:10:22.999Z,17.33
2017-12-27T09:11:22.940Z,17.44
2017-12-27T09:12:22.885Z,17.48
2017-12-27T09:13:22.880Z,17.50
2017-12-27T09:14:22.775Z,17.57
2017-12-27T09:15:22.717Z,17.57
2017-12-27T09:16:22.663Z,17.53
2017-12-27T09:17:22.606Z,17.50
2017-12-27T09:18:22.552Z,17.46
2017-12-27T09:19:22.493Z,17.44
2017-12-27T09:20:22.438Z,17.47
2017-12-27T09:21:22.382Z,17.46
2017-12-27T09:22:22.326Z,17.46
2017-12-27T09:23:22.272Z,17.38
2017-12-27T09:24:22.212Z,17.41
2017-12-27T09:25:22.158Z,17.43
2017-12-27T09:27:14.977Z,17.50
2017-12-27T09:28:14.918Z,17.41
2017-12-27T09:29:14.863Z,17.41
2017-12-27T09:30:14.807Z,17.40
2017-12-27T09:31:14.751Z,17.50
2017-12-27T09:32:14.694Z,17.46
2017-12-27T09:33:14.637Z,17.50
2017-12-27T09:34:14.583Z,17.40
2017-12-27T09:35:14.527Z,17.51
2017-12-27T09:36:14.470Z,17.33
2017-12-27T09:37:14.414Z,17.43
2017-12-27T09:38:14.359Z,17.40
2017-12-27T09:39:14.302Z,17.33
2017-12-27T09:40:14.246Z,17.36
2017-12-27T09:41:14.188Z,17.33
2017-12-27T09:42:14.134Z,17.29
2017-12-27T09:43:14.078Z,17.32
2017-12-27T09:44:14.021Z,17.33
2017-12-27T09:45:13.965Z,17.32
2017-12-27T09:46:13.910Z,17.29
2017-12-27T09:47:13.854Z,17.30
2017-12-27T09:48:13.798Z,17.29
2017-12-27T09:49:13.740Z,17.29
2017-12-27T09:50:13.687Z,17.29
2017-12-27T09:51:13.630Z,17.26
2017-12-27T09:52:13.573Z,17.28
2017-12-27T09:53:13.518Z,17.28
2017-12-27T09:54:13.460Z,17.32
2017-12-27T09:55:13.405Z,17.28
2017-12-27T09:56:13.353Z,17.29
2017-12-27T09:57:13.291Z,17.32
2017-12-27T09:58:13.237Z,17.29
2017-12-27T09:59:13.181Z,17.32
2017-12-27T10:00:13.125Z,17.26
2017-12-27T10:01:13.068Z,17.28
2017-12-27T10:02:13.012Z,17.25
2017-12-27T10:03:12.957Z,17.29
2017-12-27T10:04:12.901Z,17.28
2017-12-27T10:05:12.844Z,17.28
2017-12-27T10:06:12.788Z,17.28
2017-12-27T10:07:12.733Z,17.28
2017-12-27T10:08:12.677Z,17.23
2017-12-27T10:09:12.620Z,17.29
2017-12-27T10:10:12.564Z,17.29
2017-12-27T10:11:12.509Z,17.30
2017-12-27T10:12:12.452Z,17.28
2017-12-27T10:13:12.396Z,17.28
2017-12-27T10:14:12.340Z,17.23
2017-12-27T10:15:12.284Z,17.30
2017-12-27T10:16:12.228Z,17.35
2017-12-27T10:17:12.173Z,17.26
2017-12-27T10:18:12.114Z,17.32
2017-12-27T10:19:12.060Z,17.32
2017-12-27T10:20:12.004Z,17.30
2017-12-27T10:21:11.947Z,17.35
2017-12-27T10:22:11.903Z,17.30
2017-12-27T10:23:11.836Z,17.38
2017-12-27T10:24:11.829Z,17.43
2017-12-27T10:25:11.723Z,17.44
2017-12-27T10:26:11.667Z,17.47
2017-12-27T10:27:11.611Z,17.48
2017-12-27T10:28:11.555Z,17.51
2017-12-27T10:29:11.499Z,17.54
2017-12-27T10:30:11.443Z,17.53
2017-12-27T10:31:11.388Z,17.47
2017-12-27T10:32:11.346Z,17.54
2017-12-27T10:33:11.290Z,17.62
2017-12-27T10:34:11.218Z,17.54
2017-12-27T10:35:11.173Z,17.57
2017-12-27T10:36:11.107Z,17.51
2017-12-27T10:37:11.050Z,17.62
2017-12-27T10:38:10.995Z,17.62
2017-12-27T10:39:10.938Z,17.57
2017-12-27T10:40:10.882Z,17.55
2017-12-27T10:41:10.825Z,17.59
2017-12-27T10:42:10.770Z,17.55
2017-12-27T10:43:10.716Z,17.53
2017-12-27T10:44:10.659Z,17.47
2017-12-27T10:45:10.602Z,17.53
2017-12-27T10:46:10.546Z,17.53
2017-12-27T10:47:10.490Z,17.43
2017-12-27T10:48:10.435Z,17.48
2017-12-27T10:49:10.377Z,17.51
2017-12-27T10:50:10.329Z,17.46
2017-12-27T10:51:10.266Z,17.43
2017-12-27T10:52:10.210Z,17.40
2017-12-27T10:53:10.160Z,17.41
2017-12-27T10:54:10.098Z,17.38
2017-12-27T10:55:10.042Z,17.41
2017-12-27T10:56:09.986Z,17.36
2017-12-27T10:57:09.929Z,17.33
2017-12-27T10:58:09.874Z,17.38
2017-12-27T10:59:09.818Z,17.36
2017-12-27T11:00:09.764Z,17.35
2017-12-27T11:01:09.706Z,17.40
2017-12-27T11:02:09.650Z,17.46
2017-12-27T11:03:09.594Z,17.48
2017-12-27T11:04:09.538Z,17.51
2017-12-27T11:05:09.483Z,17.66
2017-12-27T11:06:09.425Z,17.66
2017-12-27T11:07:09.378Z,17.64
2017-12-27T11:08:09.315Z,17.67
2017-12-27T11:09:09.258Z,17.76
2017-12-27T11:10:09.202Z,17.74
2017-12-27T11:11:09.145Z,17.73
2017-12-27T11:12:09.090Z,17.69
2017-12-27T11:13:09.041Z,17.57
2017-12-27T11:14:08.977Z,17.54
2017-12-27T11:15:08.948Z,17.53
2017-12-27T11:16:08.866Z,17.54
2017-12-27T11:17:08.810Z,17.46
2017-12-27T11:18:08.753Z,17.50
2017-12-27T11:19:08.698Z,17.46
2017-12-27T11:20:08.641Z,17.40
2017-12-27T11:21:08.585Z,17.51
2017-12-27T11:22:08.529Z,17.46
2017-12-27T11:23:08.476Z,17.44
2017-12-27T11:24:08.418Z,17.40
2017-12-27T11:25:08.361Z,17.38
2017-12-27T11:26:08.305Z,17.41
2017-12-27T11:27:08.249Z,17.43
2017-12-27T11:28:08.194Z,17.43
2017-12-27T11:29:08.137Z,17.41
2017-12-27T11:30:08.081Z,17.44
2017-12-27T11:31:08.026Z,17.46
2017-12-27T11:32:07.970Z,17.44
2017-12-27T11:33:07.913Z,17.40
2017-12-27T11:34:07.857Z,17.38
2017-12-27T11:35:07.801Z,17.44
2017-12-27T11:36:07.745Z,17.46
2017-12-27T11:37:07.689Z,17.44
2017-12-27T11:38:07.678Z,17.43
2017-12-27T11:39:07.578Z,17.43
2017-12-27T11:40:07.526Z,17.35
2017-12-27T11:41:07.465Z,17.40
2017-12-27T11:42:07.409Z,17.46
2017-12-27T11:43:07.353Z,17.46
2017-12-27T11:44:07.297Z,17.35
2017-12-27T11:45:07.244Z,17.41
2017-12-27T11:46:07.185Z,17.44
2017-12-27T11:47:07.129Z,17.30
2017-12-27T11:48:07.075Z,17.41
2017-12-27T11:49:07.017Z,17.36
2017-12-27T11:50:06.962Z,17.43
2017-12-27T11:51:06.907Z,17.46
2017-12-27T11:52:06.850Z,17.43
2017-12-27T11:53:06.793Z,17.38
2017-12-27T11:54:06.737Z,17.40
2017-12-27T11:55:06.681Z,17.38
2017-12-27T11:56:06.625Z,17.35
2017-12-27T11:57:06.569Z,17.40
2017-12-27T11:58:06.513Z,17.40
2017-12-27T11:59:06.458Z,17.44
2017-12-27T12:00:06.403Z,17.40
2017-12-27T12:01:06.345Z,17.41
2017-12-27T12:02:06.294Z,17.33
2017-12-27T12:03:06.234Z,17.33
2017-12-27T12:04:06.178Z,17.41
2017-12-27T12:05:06.121Z,17.35
2017-12-27T12:06:06.065Z,17.32
2017-12-27T12:07:06.009Z,17.40
2017-12-27T12:08:05.953Z,17.30
2017-12-27T12:09:05.899Z,17.30
2017-12-27T12:10:05.841Z,17.35
2017-12-27T12:11:05.786Z,17.33
2017-12-27T12:12:05.734Z,17.38
2017-12-27T12:13:05.673Z,17.29
2017-12-27T12:14:05.618Z,17.44
2017-12-27T12:15:05.562Z,17.29
2017-12-27T12:16:05.506Z,17.30
2017-12-27T12:17:05.449Z,17.33
2017-12-27T12:18:05.393Z,17.26
2017-12-27T12:19:05.338Z,17.26
2017-12-27T12:20:05.282Z,17.29
2017-12-27T12:21:05.225Z,17.25
2017-12-27T12:22:05.169Z,17.25
2017-12-27T12:23:05.114Z,17.29
2017-12-27T12:24:05.057Z,17.32
2017-12-27T12:25:05.007Z,17.40
2017-12-27T12:26:04.948Z,17.30
2017-12-27T12:27:04.888Z,17.26
2017-12-27T12:28:04.834Z,17.29
2017-12-27T12:29:04.778Z,17.25
2017-12-27T12:30:04.721Z,17.36
2017-12-27T12:31:04.673Z,17.30
2017-12-27T12:32:04.610Z,17.23
2017-12-27T12:33:04.553Z,17.20
2017-12-27T12:34:04.498Z,17.30
2017-12-27T12:35:04.442Z,17.26
2017-12-27T12:36:04.387Z,17.30
2017-12-27T12:37:04.329Z,17.29
2017-12-27T12:38:04.273Z,17.30
2017-12-27T12:39:04.221Z,17.32
2017-12-27T12:40:04.164Z,17.26
2017-12-27T12:41:04.105Z,17.32
2017-12-27T12:42:04.050Z,17.36
2017-12-27T12:43:03.993Z,17.35
2017-12-27T12:44:03.938Z,17.44
2017-12-27T12:45:03.882Z,17.41
2017-12-27T12:46:03.828Z,17.43
2017-12-27T12:47:03.770Z,17.41
2017-12-27T12:48:03.714Z,17.46
2017-12-27T12:49:03.657Z,17.40
2017-12-27T12:50:03.602Z,17.41
2017-12-27T12:51:03.546Z,17.43
2017-12-27T12:52:03.524Z,17.43
2017-12-27T12:53:03.434Z,17.41